Ashley, Wisconsin
Current Conditions -  °F | °C
As of 7:45 PM on Wednesday 26 Nov 2014 (Local Time) from KCWA Reporting Station
Light Snow Light Snow  
Wind Chill: 13°   Ceiling: 2400
Heat Index: 21°   Visibility: 5mi
Dew Point: 21°   Wind: 7mph
Humidity: 100%   Direction: 310°NW
Pressure: 30.17"   Gusts: NA
Location:  44.7605°N, 89.5918°W
Report Text: KCWA 270145Z 31006KT 5SM -SN BKN024 OVC095 M06/M06 A3017
Loading
Personal Weather Stations






























Interactive Weather Map New forecast layout! Learn more

10-Day Weather Forecast

Advertisements
Track Severe Weather on mobile